sensor_id;sensor_type;location;lat;lon;timestamp;pressure;altitude;pressure_sealevel;temperature;humidity
75794;BME280;64418;47.536;19.074;2023-05-10T00:01:38;100538.03;;;12.74;61.41
75794;BME280;64418;47.536;19.074;2023-05-10T00:04:05;100540.84;;;12.61;62.24
75794;BME280;64418;47.536;19.074;2023-05-10T00:06:31;100539.56;;;12.64;62.32
75794;BME280;64418;47.536;19.074;2023-05-10T00:08:57;100530.41;;;12.51;62.87
75794;BME280;64418;47.536;19.074;2023-05-10T00:11:26;100535.03;;;12.44;63.25
75794;BME280;64418;47.536;19.074;2023-05-10T00:13:52;100526.69;;;12.46;63.55
75794;BME280;64418;47.536;19.074;2023-05-10T00:16:21;100522.72;;;12.35;63.77
75794;BME280;64418;47.536;19.074;2023-05-10T00:18:47;100534.06;;;12.26;64.38
75794;BME280;64418;47.536;19.074;2023-05-10T00:21:18;100528.63;;;12.26;64.76
75794;BME280;64418;47.536;19.074;2023-05-10T00:23:47;100525.28;;;12.17;65.01
75794;BME280;64418;47.536;19.074;2023-05-10T00:26:13;100533.47;;;12.11;65.29
75794;BME280;64418;47.536;19.074;2023-05-10T00:28:38;100525.34;;;12.04;65.57
75794;BME280;64418;47.536;19.074;2023-05-10T00:31:04;100528.28;;;11.96;65.98
75794;BME280;64418;47.536;19.074;2023-05-10T00:33:30;100526.38;;;11.90;66.44
75794;BME280;64418;47.536;19.074;2023-05-10T00:35:58;100522.84;;;11.83;66.97
75794;BME280;64418;47.536;19.074;2023-05-10T00:38:26;100529.75;;;11.72;67.41
75794;BME280;64418;47.536;19.074;2023-05-10T00:40:52;100524.31;;;11.66;67.93
75794;BME280;64418;47.536;19.074;2023-05-10T00:43:21;100521.38;;;11.60;68.26
75794;BME280;64418;47.536;19.074;2023-05-10T00:45:47;100525.78;;;11.62;68.31
75794;BME280;64418;47.536;19.074;2023-05-10T00:48:13;100527.03;;;11.66;68.40
75794;BME280;64418;47.536;19.074;2023-05-10T00:50:39;100525.78;;;11.62;68.55
75794;BME280;64418;47.536;19.074;2023-05-10T00:53:05;100527.22;;;11.57;69.03
75794;BME280;64418;47.536;19.074;2023-05-10T00:55:32;100529.34;;;11.55;68.90
75794;BME280;64418;47.536;19.074;2023-05-10T00:57:57;100523.69;;;11.50;69.45
75794;BME280;64418;47.536;19.074;2023-05-10T01:00:23;100527.22;;;11.44;69.71
75794;BME280;64418;47.536;19.074;2023-05-10T01:02:51;100524.94;;;11.28;70.15
75794;BME280;64418;47.536;19.074;2023-05-10T01:05:18;100524.50;;;11.38;70.37
75794;BME280;64418;47.536;19.074;2023-05-10T01:07:43;100514.94;;;11.29;70.61
75794;BME280;64418;47.536;19.074;2023-05-10T01:10:09;100521.59;;;11.20;70.83
75794;BME280;64418;47.536;19.074;2023-05-10T01:12:39;100521.16;;;11.16;71.38
75794;BME280;64418;47.536;19.074;2023-05-10T01:15:07;100518.87;;;11.13;71.48
75794;BME280;64418;47.536;19.074;2023-05-10T01:17:33;100521.78;;;11.18;72.02
75794;BME280;64418;47.536;19.074;2023-05-10T01:20:00;100524.50;;;11.18;71.58
75794;BME280;64418;47.536;19.074;2023-05-10T01:22:40;100520.12;;;11.17;71.76
75794;BME280;64418;47.536;19.074;2023-05-10T01:25:43;100514.47;;;11.12;72.25
75794;BME280;64418;47.536;19.074;2023-05-10T01:28:38;100518.44;;;11.16;72.00
75794;BME280;64418;47.536;19.074;2023-05-10T01:31:18;100517.00;;;11.20;71.88
75794;BME280;64418;47.536;19.074;2023-05-10T01:33:54;100515.13;;;11.27;71.85
75794;BME280;64418;47.536;19.074;2023-05-10T01:36:26;100514.09;;;11.28;71.97
75794;BME280;64418;47.536;19.074;2023-05-10T01:38:56;100514.50;;;11.32;71.81
75794;BME280;64418;47.536;19.074;2023-05-10T01:41:28;100509.91;;;11.32;71.56
75794;BME280;64418;47.536;19.074;2023-05-10T01:44:02;100514.28;;;11.33;71.61
75794;BME280;64418;47.536;19.074;2023-05-10T01:46:35;100515.13;;;11.34;71.80
75794;BME280;64418;47.536;19.074;2023-05-10T01:49:05;100515.34;;;11.32;71.95
75794;BME280;64418;47.536;19.074;2023-05-10T01:51:41;100509.91;;;11.39;71.81
75794;BME280;64418;47.536;19.074;2023-05-10T01:54:09;100507.41;;;11.44;71.55
75794;BME280;64418;47.536;19.074;2023-05-10T01:56:38;100513.66;;;11.44;71.62
75794;BME280;64418;47.536;19.074;2023-05-10T01:59:08;100504.47;;;11.45;71.45
75794;BME280;64418;47.536;19.074;2023-05-10T02:01:37;100508.22;;;11.44;71.50
75794;BME280;64418;47.536;19.074;2023-05-10T02:04:06;100504.91;;;11.42;71.43
75794;BME280;64418;47.536;19.074;2023-05-10T02:06:33;100508.22;;;11.44;71.34
75794;BME280;64418;47.536;19.074;2023-05-10T02:09:01;100499.03;;;11.52;71.12
75794;BME280;64418;47.536;19.074;2023-05-10T02:11:28;100496.12;;;11.60;70.58
75794;BME280;64418;47.536;19.074;2023-05-10T02:13:59;100494.66;;;11.64;70.40
75794;BME280;64418;47.536;19.074;2023-05-10T02:16:26;100485.50;;;11.72;69.91
75794;BME280;64418;47.536;19.074;2023-05-10T02:18:54;100489.03;;;11.79;69.45
75794;BME280;64418;47.536;19.074;2023-05-10T02:21:23;100481.13;;;11.77;69.21
75794;BME280;64418;47.536;19.074;2023-05-10T02:23:51;100485.69;;;11.70;69.37
75794;BME280;64418;47.536;19.074;2023-05-10T02:26:18;100484.47;;;11.73;69.28
75794;BME280;64418;47.536;19.074;2023-05-10T02:28:50;100484.84;;;11.83;68.90
75794;BME280;64418;47.536;19.074;2023-05-10T02:31:18;100486.75;;;11.76;68.93
75794;BME280;64418;47.536;19.074;2023-05-10T02:33:44;100483.00;;;11.77;68.80
75794;BME280;64418;47.536;19.074;2023-05-10T02:36:15;100479.41;;;11.83;68.68
75794;BME280;64418;47.536;19.074;2023-05-10T02:38:43;100485.69;;;11.83;68.47
75794;BME280;64418;47.536;19.074;2023-05-10T02:41:10;100486.97;;;11.81;68.51
75794;BME280;64418;47.536;19.074;2023-05-10T02:43:38;100490.91;;;11.85;68.45
75794;BME280;64418;47.536;19.074;2023-05-10T02:46:06;100480.22;;;11.90;68.32
75794;BME280;64418;47.536;19.074;2023-05-10T02:48:32;100491.31;;;11.95;67.94
75794;BME280;64418;47.536;19.074;2023-05-10T02:51:03;100487.97;;;11.93;68.04
75794;BME280;64418;47.536;19.074;2023-05-10T02:53:31;100493.59;;;11.98;67.89
75794;BME280;64418;47.536;19.074;2023-05-10T02:56:07;100484.84;;;11.96;67.84
75794;BME280;64418;47.536;19.074;2023-05-10T02:58:35;100488.97;;;12.05;67.37
75794;BME280;64418;47.536;19.074;2023-05-10T03:01:01;100486.50;;;11.97;67.54
75794;BME280;64418;47.536;19.074;2023-05-10T03:03:30;100481.69;;;11.99;67.16
75794;BME280;64418;47.536;19.074;2023-05-10T03:05:56;100486.91;;;11.94;67.16
75794;BME280;64418;47.536;19.074;2023-05-10T03:08:25;100493.00;;;11.83;67.41
75794;BME280;64418;47.536;19.074;2023-05-10T03:11:01;100485.91;;;11.82;67.38
75794;BME280;64418;47.536;19.074;2023-05-10T03:13:39;100494.25;;;11.80;66.90
75794;BME280;64418;47.536;19.074;2023-05-10T03:16:12;100489.88;;;11.73;66.81
75794;BME280;64418;47.536;19.074;2023-05-10T03:18:44;100479.66;;;11.62;66.87
75794;BME280;64418;47.536;19.074;2023-05-10T03:21:13;100494.06;;;11.55;66.92
75794;BME280;64418;47.536;19.074;2023-05-10T03:23:44;100484.25;;;11.54;67.01
75794;BME280;64418;47.536;19.074;2023-05-10T03:26:18;100490.09;;;11.58;66.61
75794;BME280;64418;47.536;19.074;2023-05-10T03:28:46;100486.75;;;11.36;67.25
75794;BME280;64418;47.536;19.074;2023-05-10T03:31:13;100478.81;;;11.41;67.04
75794;BME280;64418;47.536;19.074;2023-05-10T03:33:49;100494.47;;;11.46;66.98
75794;BME280;64418;47.536;19.074;2023-05-10T03:36:15;100486.53;;;11.38;67.30
75794;BME280;64418;47.536;19.074;2023-05-10T03:38:41;100486.75;;;11.30;67.54
75794;BME280;64418;47.536;19.074;2023-05-10T03:41:07;100485.50;;;11.45;67.08
75794;BME280;64418;47.536;19.074;2023-05-10T03:43:34;100494.87;;;11.56;66.46
75794;BME280;64418;47.536;19.074;2023-05-10T03:46:02;100485.69;;;11.57;66.20
75794;BME280;64418;47.536;19.074;2023-05-10T03:48:27;100486.09;;;11.60;65.98
75794;BME280;64418;47.536;19.074;2023-05-10T03:50:56;100496.97;;;11.60;65.88
75794;BME280;64418;47.536;19.074;2023-05-10T03:53:22;100488.22;;;11.58;65.93
75794;BME280;64418;47.536;19.074;2023-05-10T03:55:47;100495.72;;;11.63;65.70
75794;BME280;64418;47.536;19.074;2023-05-10T03:58:13;100493.22;;;11.62;65.71
75794;BME280;64418;47.536;19.074;2023-05-10T04:00:40;100494.03;;;11.69;65.38
75794;BME280;64418;47.536;19.074;2023-05-10T04:03:09;100494.06;;;11.55;65.78
75794;BME280;64418;47.536;19.074;2023-05-10T04:05:35;100486.53;;;11.57;65.81
75794;BME280;64418;47.536;19.074;2023-05-10T04:08:00;100487.78;;;11.68;65.47
75794;BME280;64418;47.536;19.074;2023-05-10T04:10:26;100490.94;;;11.72;65.40
75794;BME280;64418;47.536;19.074;2023-05-10T04:12:53;100481.97;;;11.78;65.26
75794;BME280;64418;47.536;19.074;2023-05-10T04:15:19;100488.59;;;11.88;65.04
75794;BME280;64418;47.536;19.074;2023-05-10T04:17:47;100489.84;;;11.86;65.06
75794;BME280;64418;47.536;19.074;2023-05-10T04:20:13;100486.12;;;11.74;65.56
75794;BME280;64418;47.536;19.074;2023-05-10T04:22:39;100483.19;;;11.69;65.86
75794;BME280;64418;47.536;19.074;2023-05-10T04:25:06;100483.59;;;11.66;66.10
75794;BME280;64418;47.536;19.074;2023-05-10T04:27:32;100482.16;;;11.70;66.07
75794;BME280;64418;47.536;19.074;2023-05-10T04:29:57;100486.31;;;11.66;66.32
75794;BME280;64418;47.536;19.074;2023-05-10T04:32:23;100493.22;;;11.62;66.43
75794;BME280;64418;47.536;19.074;2023-05-10T04:34:50;100489.84;;;11.59;66.55
75794;BME280;64418;47.536;19.074;2023-05-10T04:37:17;100500.28;;;11.56;66.92
75794;BME280;64418;47.536;19.074;2023-05-10T04:39:45;100495.28;;;11.53;66.80
75794;BME280;64418;47.536;19.074;2023-05-10T04:42:14;100495.28;;;11.53;66.81
75794;BME280;64418;47.536;19.074;2023-05-10T04:44:40;100494.28;;;11.47;66.97
75794;BME280;64418;47.536;19.074;2023-05-10T04:47:06;100489.44;;;11.56;66.59
75794;BME280;64418;47.536;19.074;2023-05-10T04:49:32;100499.28;;;11.50;66.68
75794;BME280;64418;47.536;19.074;2023-05-10T04:52:02;100491.75;;;11.52;66.57
75794;BME280;64418;47.536;19.074;2023-05-10T04:54:28;100499.91;;;11.59;66.51
75794;BME280;64418;47.536;19.074;2023-05-10T04:56:53;100492.81;;;11.71;66.12
75794;BME280;64418;47.536;19.074;2023-05-10T04:59:19;100490.72;;;11.80;65.80
75794;BME280;64418;47.536;19.074;2023-05-10T05:01:48;100500.09;;;11.97;65.19
75794;BME280;64418;47.536;19.074;2023-05-10T05:04:14;100494.44;;;11.98;65.31
75794;BME280;64418;47.536;19.074;2023-05-10T05:06:39;100498.78;;;12.06;65.05
75794;BME280;64418;47.536;19.074;2023-05-10T05:09:06;100492.50;;;12.19;64.70
75794;BME280;64418;47.536;19.074;2023-05-10T05:11:32;100495.81;;;12.27;64.34
75794;BME280;64418;47.536;19.074;2023-05-10T05:13:58;100496.00;;;12.32;64.07
75794;BME280;64418;47.536;19.074;2023-05-10T05:16:24;100501.03;;;12.22;64.43
75794;BME280;64418;47.536;19.074;2023-05-10T05:18:50;100503.12;;;12.27;64.49
75794;BME280;64418;47.536;19.074;2023-05-10T05:21:17;100502.63;;;12.43;64.00
75794;BME280;64418;47.536;19.074;2023-05-10T05:23:44;100503.03;;;12.46;63.78
75794;BME280;64418;47.536;19.074;2023-05-10T05:26:11;100510.19;;;12.41;63.78
75794;BME280;64418;47.536;19.074;2023-05-10T05:28:37;100512.66;;;12.49;63.47
75794;BME280;64418;47.536;19.074;2023-05-10T05:31:09;100508.37;;;12.66;62.87
75794;BME280;64418;47.536;19.074;2023-05-10T05:33:36;100514.56;;;12.86;62.36
75794;BME280;64418;47.536;19.074;2023-05-10T05:36:04;100512.19;;;12.96;62.13
75794;BME280;64418;47.536;19.074;2023-05-10T05:38:30;100516.78;;;12.96;62.21
75794;BME280;64418;47.536;19.074;2023-05-10T05:40:56;100515.28;;;13.00;62.03
75794;BME280;64418;47.536;19.074;2023-05-10T05:43:24;100516.25;;;13.19;61.67
75794;BME280;64418;47.536;19.074;2023-05-10T05:45:51;100524.84;;;13.16;61.67
75794;BME280;64418;47.536;19.074;2023-05-10T05:48:17;100531.09;;;13.23;61.56
75794;BME280;64418;47.536;19.074;2023-05-10T05:50:43;100525.75;;;13.34;61.15
75794;BME280;64418;47.536;19.074;2023-05-10T05:53:09;100530.38;;;13.34;61.20
75794;BME280;64418;47.536;19.074;2023-05-10T05:55:34;100525.00;;;13.27;61.42
75794;BME280;64418;47.536;19.074;2023-05-10T05:58:00;100534.81;;;13.28;61.28
75794;BME280;64418;47.536;19.074;2023-05-10T06:00:27;100531.13;;;13.16;61.38
75794;BME280;64418;47.536;19.074;2023-05-10T06:02:54;100524.47;;;13.12;61.53
75794;BME280;64418;47.536;19.074;2023-05-10T06:05:20;100537.47;;;13.10;61.53
75794;BME280;64418;47.536;19.074;2023-05-10T06:07:46;100531.53;;;13.20;61.25
75794;BME280;64418;47.536;19.074;2023-05-10T06:10:14;100526.88;;;13.27;61.08
75794;BME280;64418;47.536;19.074;2023-05-10T06:12:40;100536.91;;;13.26;61.29
75794;BME280;64418;47.536;19.074;2023-05-10T06:15:07;100536.44;;;13.36;61.12
75794;BME280;64418;47.536;19.074;2023-05-10T06:17:34;100536.31;;;13.49;60.72
75794;BME280;64418;47.536;19.074;2023-05-10T06:20:00;100537.94;;;13.57;60.54
75794;BME280;64418;47.536;19.074;2023-05-10T06:22:27;100539.63;;;13.58;60.31
75794;BME280;64418;47.536;19.074;2023-05-10T06:24:52;100546.34;;;13.55;60.37
75794;BME280;64418;47.536;19.074;2023-05-10T06:27:18;100540.44;;;13.58;60.32
75794;BME280;64418;47.536;19.074;2023-05-10T06:29:44;100542.16;;;13.52;60.68
75794;BME280;64418;47.536;19.074;2023-05-10T06:32:10;100528.31;;;13.79;60.11
75794;BME280;64418;47.536;19.074;2023-05-10T06:34:37;100546.25;;;14.11;59.15
75794;BME280;64418;47.536;19.074;2023-05-10T06:37:03;100548.94;;;13.93;59.63
75794;BME280;64418;47.536;19.074;2023-05-10T06:39:29;100546.38;;;13.98;59.55
75794;BME280;64418;47.536;19.074;2023-05-10T06:41:55;100546.75;;;14.02;59.41
75794;BME280;64418;47.536;19.074;2023-05-10T06:44:21;100546.06;;;14.06;59.38
75794;BME280;64418;47.536;19.074;2023-05-10T06:46:47;100543.81;;;14.03;59.42
75794;BME280;64418;47.536;19.074;2023-05-10T06:49:13;100542.22;;;14.14;59.05
75794;BME280;64418;47.536;19.074;2023-05-10T06:51:40;100544.94;;;14.38;58.76
75794;BME280;64418;47.536;19.074;2023-05-10T06:54:06;100542.47;;;14.30;58.91
75794;BME280;64418;47.536;19.074;2023-05-10T06:56:31;100544.75;;;14.33;58.90
75794;BME280;64418;47.536;19.074;2023-05-10T06:58:57;100539.47;;;14.57;58.63
75794;BME280;64418;47.536;19.074;2023-05-10T07:01:42;100541.00;;;14.53;58.41
75794;BME280;64418;47.536;19.074;2023-05-10T07:04:17;100545.19;;;14.30;59.32
75794;BME280;64418;47.536;19.074;2023-05-10T07:06:45;100547.78;;;14.62;58.41
75794;BME280;64418;47.536;19.074;2023-05-10T07:09:12;100548.56;;;14.99;57.37
75794;BME280;64418;47.536;19.074;2023-05-10T07:11:37;100549.00;;;14.66;58.29
75794;BME280;64418;47.536;19.074;2023-05-10T07:14:03;100538.09;;;14.66;58.45
75794;BME280;64418;47.536;19.074;2023-05-10T07:16:29;100544.75;;;15.18;57.22
75794;BME280;64418;47.536;19.074;2023-05-10T07:18:55;100540.88;;;15.37;56.60
75794;BME280;64418;47.536;19.074;2023-05-10T07:21:25;100549.75;;;15.32;56.64
75794;BME280;64418;47.536;19.074;2023-05-10T07:23:52;100536.50;;;15.06;57.36
75794;BME280;64418;47.536;19.074;2023-05-10T07:26:18;100541.97;;;15.48;56.38
75794;BME280;64418;47.536;19.074;2023-05-10T07:28:44;100540.00;;;15.55;55.76
75794;BME280;64418;47.536;19.074;2023-05-10T07:31:10;100537.25;;;15.55;55.74
75794;BME280;64418;47.536;19.074;2023-05-10T07:33:37;100530.81;;;16.54;53.30
75794;BME280;64418;47.536;19.074;2023-05-10T07:36:04;100539.22;;;17.04;51.54
75794;BME280;64418;47.536;19.074;2023-05-10T07:38:30;100532.47;;;16.43;52.47
75794;BME280;64418;47.536;19.074;2023-05-10T07:40:59;100528.97;;;16.19;52.77
75794;BME280;64418;47.536;19.074;2023-05-10T07:43:30;100529.09;;;17.04;51.32
75794;BME280;64418;47.536;19.074;2023-05-10T07:45:56;100528.41;;;17.42;50.25
75794;BME280;64418;47.536;19.074;2023-05-10T07:48:22;100522.59;;;17.39;50.19
75794;BME280;64418;47.536;19.074;2023-05-10T07:50:48;100517.34;;;17.82;49.70
75794;BME280;64418;47.536;19.074;2023-05-10T07:53:14;100518.37;;;18.36;48.65
75794;BME280;64418;47.536;19.074;2023-05-10T07:55:39;100521.00;;;18.64;47.75
75794;BME280;64418;47.536;19.074;2023-05-10T07:58:07;100530.69;;;18.72;47.12
75794;BME280;64418;47.536;19.074;2023-05-10T08:00:32;100528.31;;;18.59;47.28
75794;BME280;64418;47.536;19.074;2023-05-10T08:02:59;100527.59;;;18.47;47.50
75794;BME280;64418;47.536;19.074;2023-05-10T08:05:25;100518.59;;;18.13;48.15
75794;BME280;64418;47.536;19.074;2023-05-10T08:07:51;100522.28;;;18.02;48.27
75794;BME280;64418;47.536;19.074;2023-05-10T08:10:17;100534.91;;;18.03;48.70
75794;BME280;64418;47.536;19.074;2023-05-10T08:12:42;100526.81;;;17.58;49.36
75794;BME280;64418;47.536;19.074;2023-05-10T08:15:10;100527.56;;;18.25;48.06
75794;BME280;64418;47.536;19.074;2023-05-10T08:17:36;100523.81;;;17.93;48.49
75794;BME280;64418;47.536;19.074;2023-05-10T08:20:03;100529.28;;;17.76;48.70
75794;BME280;64418;47.536;19.074;2023-05-10T08:22:29;100525.59;;;17.54;49.34
75794;BME280;64418;47.536;19.074;2023-05-10T08:24:55;100518.06;;;16.99;50.33
75794;BME280;64418;47.536;19.074;2023-05-10T08:27:21;100526.66;;;16.91;50.56
75794;BME280;64418;47.536;19.074;2023-05-10T08:29:47;100527.28;;;18.05;48.01
75794;BME280;64418;47.536;19.074;2023-05-10T08:32:14;100530.19;;;18.53;46.63
75794;BME280;64418;47.536;19.074;2023-05-10T08:34:45;100528.06;;;18.82;45.84
75794;BME280;64418;47.536;19.074;2023-05-10T08:37:11;100530.81;;;18.44;45.85
75794;BME280;64418;47.536;19.074;2023-05-10T08:39:37;100525.37;;;17.72;47.73
75794;BME280;64418;47.536;19.074;2023-05-10T08:42:05;100526.72;;;17.86;47.75
75794;BME280;64418;47.536;19.074;2023-05-10T08:44:35;100519.59;;;18.23;46.86
75794;BME280;64418;47.536;19.074;2023-05-10T08:47:04;100523.72;;;18.43;46.52
75794;BME280;64418;47.536;19.074;2023-05-10T08:49:32;100520.78;;;18.71;46.27
75794;BME280;64418;47.536;19.074;2023-05-10T08:52:02;100524.38;;;19.47;43.63
75794;BME280;64418;47.536;19.074;2023-05-10T08:54:28;100526.94;;;19.32;43.37
75794;BME280;64418;47.536;19.074;2023-05-10T08:56:55;100523.06;;;19.86;42.83
75794;BME280;64418;47.536;19.074;2023-05-10T08:59:21;100530.66;;;19.74;42.30
75794;BME280;64418;47.536;19.074;2023-05-10T09:01:48;100524.66;;;19.23;43.49
75794;BME280;64418;47.536;19.074;2023-05-10T09:04:14;100518.34;;;18.74;44.54
75794;BME280;64418;47.536;19.074;2023-05-10T09:06:42;100522.44;;;18.50;45.41
75794;BME280;64418;47.536;19.074;2023-05-10T09:09:08;100525.66;;;18.47;45.05
75794;BME280;64418;47.536;19.074;2023-05-10T09:11:34;100521.72;;;18.82;44.32
75794;BME280;64418;47.536;19.074;2023-05-10T09:14:01;100531.22;;;19.22;43.76
75794;BME280;64418;47.536;19.074;2023-05-10T09:16:26;100532.91;;;19.82;42.28
75794;BME280;64418;47.536;19.074;2023-05-10T09:18:53;100519.03;;;20.46;40.67
75794;BME280;64418;47.536;19.074;2023-05-10T09:21:20;100518.56;;;20.64;40.38
75794;BME280;64418;47.536;19.074;2023-05-10T09:23:47;100518.16;;;20.40;40.22
75794;BME280;64418;47.536;19.074;2023-05-10T09:26:16;100527.38;;;19.45;41.55
75794;BME280;64418;47.536;19.074;2023-05-10T09:28:55;100524.28;;;20.10;40.98
75794;BME280;64418;47.536;19.074;2023-05-10T09:31:25;100512.69;;;21.12;38.60
75794;BME280;64418;47.536;19.074;2023-05-10T09:34:08;100523.22;;;21.71;37.00
75794;BME280;64418;47.536;19.074;2023-05-10T09:36:34;100515.50;;;21.63;37.31
75794;BME280;64418;47.536;19.074;2023-05-10T09:39:01;100523.75;;;21.73;37.54
75794;BME280;64418;47.536;19.074;2023-05-10T09:41:27;100508.59;;;22.01;36.68
75794;BME280;64418;47.536;19.074;2023-05-10T09:43:56;100508.84;;;22.04;36.58
75794;BME280;64418;47.536;19.074;2023-05-10T09:46:22;100510.25;;;22.86;35.38
75794;BME280;64418;47.536;19.074;2023-05-10T09:48:49;100516.75;;;24.41;32.66
75794;BME280;64418;47.536;19.074;2023-05-10T09:51:21;100511.63;;;24.01;33.25
75794;BME280;64418;47.536;19.074;2023-05-10T09:54:11;100505.41;;;23.12;33.62
75794;BME280;64418;47.536;19.074;2023-05-10T09:56:39;100508.66;;;23.63;33.48
75794;BME280;64418;47.536;19.074;2023-05-10T09:59:07;100506.88;;;24.35;32.31
75794;BME280;64418;47.536;19.074;2023-05-10T10:01:33;100517.06;;;25.06;31.47
75794;BME280;64418;47.536;19.074;2023-05-10T10:04:02;100508.00;;;25.19;31.02
75794;BME280;64418;47.536;19.074;2023-05-10T10:06:29;100501.53;;;24.15;31.90
75794;BME280;64418;47.536;19.074;2023-05-10T10:08:55;100492.19;;;23.48;32.93
75794;BME280;64418;47.536;19.074;2023-05-10T10:11:23;100495.72;;;23.15;33.70
75794;BME280;64418;47.536;19.074;2023-05-10T10:13:50;100494.34;;;24.85;30.74
75794;BME280;64418;47.536;19.074;2023-05-10T10:16:18;100493.00;;;23.82;31.98
75794;BME280;64418;47.536;19.074;2023-05-10T10:18:45;100490.56;;;22.39;34.48
75794;BME280;64418;47.536;19.074;2023-05-10T10:21:12;100489.03;;;21.52;36.79
75794;BME280;64418;47.536;19.074;2023-05-10T10:23:39;100486.09;;;24.09;32.45
75794;BME280;64418;47.536;19.074;2023-05-10T10:26:06;100478.41;;;25.98;29.06
75794;BME280;64418;47.536;19.074;2023-05-10T10:28:39;100479.97;;;24.59;30.63
75794;BME280;64418;47.536;19.074;2023-05-10T10:31:21;100479.69;;;23.12;33.02
75794;BME280;64418;47.536;19.074;2023-05-10T10:33:56;100468.22;;;22.89;33.36
75794;BME280;64418;47.536;19.074;2023-05-10T10:36:42;100468.47;;;22.98;33.71
75794;BME280;64418;47.536;19.074;2023-05-10T10:39:12;100474.22;;;23.07;33.56
75794;BME280;64418;47.536;19.074;2023-05-10T10:41:40;100471.34;;;23.89;32.09
75794;BME280;64418;47.536;19.074;2023-05-10T10:44:30;100462.09;;;24.28;31.63
75794;BME280;64418;47.536;19.074;2023-05-10T10:47:06;100470.69;;;23.35;32.73
75794;BME280;64418;47.536;19.074;2023-05-10T10:49:33;100465.38;;;23.38;32.38
75794;BME280;64418;47.536;19.074;2023-05-10T10:52:23;100459.28;;;23.46;32.05
75794;BME280;64418;47.536;19.074;2023-05-10T10:54:52;100466.03;;;22.91;32.40
75794;BME280;64418;47.536;19.074;2023-05-10T10:57:19;100452.31;;;24.97;29.45
75794;BME280;64418;47.536;19.074;2023-05-10T10:59:46;100455.50;;;27.10;25.75
75794;BME280;64418;47.536;19.074;2023-05-10T11:02:33;100459.25;;;24.75;29.01
75794;BME280;64418;47.536;19.074;2023-05-10T11:08:10;100445.59;;;27.17;25.83
75794;BME280;64418;47.536;19.074;2023-05-10T11:10:37;100441.88;;;29.10;23.60
75794;BME280;64418;47.536;19.074;2023-05-10T11:13:05;100439.94;;;32.16;20.51
75794;BME280;64418;47.536;19.074;2023-05-10T11:15:33;100439.22;;;27.92;24.31
75794;BME280;64418;47.536;19.074;2023-05-10T11:18:00;100416.53;;;24.15;29.11
75794;BME280;64418;47.536;19.074;2023-05-10T11:20:41;100424.56;;;22.42;32.11
75794;BME280;64418;47.536;19.074;2023-05-10T11:23:12;100431.06;;;21.72;33.55
75794;BME280;64418;47.536;19.074;2023-05-10T11:25:44;100428.16;;;25.16;28.49
75794;BME280;64418;47.536;19.074;2023-05-10T11:28:13;100431.84;;;30.54;21.34
75794;BME280;64418;47.536;19.074;2023-05-10T11:30:43;100425.28;;;29.48;21.94
75794;BME280;64418;47.536;19.074;2023-05-10T11:33:15;100416.97;;;25.39;27.05
75794;BME280;64418;47.536;19.074;2023-05-10T11:35:42;100414.84;;;24.80;28.29
75794;BME280;64418;47.536;19.074;2023-05-10T11:38:08;100412.09;;;22.99;31.02
75794;BME280;64418;47.536;19.074;2023-05-10T11:40:37;100405.41;;;22.61;31.89
75794;BME280;64418;47.536;19.074;2023-05-10T11:43:03;100413.09;;;23.47;30.04
75794;BME280;64418;47.536;19.074;2023-05-10T11:45:32;100396.00;;;23.92;28.91
75794;BME280;64418;47.536;19.074;2023-05-10T11:47:59;100404.91;;;22.44;31.88
75794;BME280;64418;47.536;19.074;2023-05-10T11:50:26;100395.41;;;22.11;32.95
75794;BME280;64418;47.536;19.074;2023-05-10T11:55:33;100397.38;;;22.05;32.70
75794;BME280;64418;47.536;19.074;2023-05-10T11:58:01;100406.19;;;22.07;32.70
75794;BME280;64418;47.536;19.074;2023-05-10T12:00:27;100393.66;;;21.41;33.67
75794;BME280;64418;47.536;19.074;2023-05-10T12:02:56;100397.97;;;20.71;35.32
75794;BME280;64418;47.536;19.074;2023-05-10T12:05:24;100398.28;;;20.80;35.28
75794;BME280;64418;47.536;19.074;2023-05-10T12:07:50;100399.03;;;20.45;35.75
75794;BME280;64418;47.536;19.074;2023-05-10T12:10:25;100399.03;;;20.45;35.91
75794;BME280;64418;47.536;19.074;2023-05-10T12:12:52;100398.53;;;20.78;35.39
75794;BME280;64418;47.536;19.074;2023-05-10T12:15:19;100399.41;;;21.09;34.83
75794;BME280;64418;47.536;19.074;2023-05-10T12:17:45;100394.69;;;21.65;33.79
75794;BME280;64418;47.536;19.074;2023-05-10T12:20:18;100388.41;;;21.39;33.51
75794;BME280;64418;47.536;19.074;2023-05-10T12:22:47;100406.31;;;21.17;34.01
75794;BME280;64418;47.536;19.074;2023-05-10T12:25:14;100398.84;;;20.92;34.64
75794;BME280;64418;47.536;19.074;2023-05-10T12:27:53;100400.22;;;21.50;33.85
75794;BME280;64418;47.536;19.074;2023-05-10T12:30:21;100400.28;;;21.30;33.84
75794;BME280;64418;47.536;19.074;2023-05-10T12:32:46;100391.69;;;21.01;33.63
75794;BME280;64418;47.536;19.074;2023-05-10T12:35:12;100385.38;;;21.10;33.72
75794;BME280;64418;47.536;19.074;2023-05-10T12:37:38;100379.81;;;21.00;34.09
75794;BME280;64418;47.536;19.074;2023-05-10T12:40:06;100379.28;;;21.54;33.45
75794;BME280;64418;47.536;19.074;2023-05-10T12:42:32;100386.47;;;21.35;33.95
75794;BME280;64418;47.536;19.074;2023-05-10T12:44:58;100379.31;;;21.24;34.30
75794;BME280;64418;47.536;19.074;2023-05-10T12:47:24;100375.63;;;21.94;33.20
75794;BME280;64418;47.536;19.074;2023-05-10T12:49:49;100377.78;;;22.02;33.04
75794;BME280;64418;47.536;19.074;2023-05-10T12:52:15;100363.81;;;21.53;33.97